Terminal Aerodrome Forecast
Issued by NWS

Home | Current Version | Previous Version | Text Only | Print | Product List | Glossary On
Versions: 1 2 3 4 5 6 7 8 9 10 11 12 13
000
FTUS46 KSTO 171700
TAFRBL
TAF
KRBL 171740Z 1718/1818 13009KT P6SM SKC
     FM172100 16017G25KT P6SM BKN200
     FM180600 16013KT P6SM SCT100 OVC200
     FM180900 15008KT P6SM VCSH SCT050 OVC070
     FM181000 15008KT P6SM -SHRA BKN035 OVC050=

USA.gov is the U.S. government's official web portal to all federal, state and local government web resources and services.